createdAt,value
2022-08-31T02:08:02.662Z,95.06
2022-08-31T02:10:29.915Z,95.32
2022-08-31T02:12:56.845Z,95.68
2022-08-31T02:15:29.518Z,95.22
2022-08-31T02:17:56.135Z,91.38
2022-08-31T02:20:23.982Z,91.21
2022-08-31T02:22:50.865Z,91.94
2022-08-31T02:25:17.874Z,93.15
2022-08-31T02:27:45.138Z,93.33
2022-08-31T02:30:16.475Z,95.58
2022-08-31T02:32:44.072Z,97.88
2022-08-31T02:35:11.178Z,97.09
2022-08-31T02:37:38.168Z,94.69
2022-08-31T02:40:09.402Z,93.04
2022-08-31T02:42:52.385Z,92.13
2022-08-31T02:45:21.908Z,92.65
2022-08-31T02:47:48.621Z,92.11
2022-08-31T02:50:23.397Z,90.73
2022-08-31T02:52:50.586Z,90.74
2022-08-31T02:55:17.937Z,89.83
2022-08-31T02:57:44.615Z,89.84
2022-08-31T03:00:12.448Z,90.56
2022-08-31T03:02:41.085Z,90.79
2022-08-31T03:05:08.939Z,90.40
2022-08-31T03:07:38.223Z,90.51
2022-08-31T03:10:08.224Z,90.87
2022-08-31T03:12:36.207Z,90.31
2022-08-31T03:15:04.852Z,91.64
2022-08-31T03:17:31.431Z,91.21
2022-08-31T03:20:05.294Z,91.28
2022-08-31T03:22:33.386Z,91.81
2022-08-31T03:25:00.847Z,91.74
2022-08-31T03:27:29.334Z,91.77
2022-08-31T03:29:56.994Z,90.65
2022-08-31T03:32:30.959Z,90.36
2022-08-31T03:34:59.652Z,91.84
2022-08-31T03:37:27.337Z,90.49
2022-08-31T03:39:57.762Z,91.33
2022-08-31T03:42:25.979Z,91.12
2022-08-31T03:44:54.632Z,92.02
2022-08-31T03:47:28.382Z,91.77
2022-08-31T03:49:56.023Z,91.69
2022-08-31T03:52:25.692Z,92.03
2022-08-31T03:55:10.804Z,91.60
2022-08-31T03:57:38.778Z,92.86
2022-08-31T04:00:07.010Z,92.15
2022-08-31T04:02:43.387Z,92.06
2022-08-31T04:05:48.178Z,93.15
2022-08-31T04:08:15.918Z,93.22
2022-08-31T04:10:51.102Z,92.62
2022-08-31T04:13:32.878Z,92.14
2022-08-31T04:16:20.861Z,92.85
2022-08-31T04:19:08.064Z,91.72
2022-08-31T04:21:41.184Z,92.03
2022-08-31T04:24:12.188Z,91.71
2022-08-31T04:26:40.851Z,91.76
2022-08-31T04:29:12.385Z,91.91
2022-08-31T04:31:40.539Z,92.46
2022-08-31T04:34:07.206Z,92.00
2022-08-31T04:36:33.828Z,93.13
2022-08-31T04:39:03.252Z,93.59
2022-08-31T04:41:32.358Z,93.32
2022-08-31T04:44:00.911Z,93.99
2022-08-31T04:46:29.289Z,93.09
2022-08-31T04:48:57.191Z,94.38
2022-08-31T04:51:27.960Z,94.04
2022-08-31T04:53:55.125Z,94.27
2022-08-31T04:56:25.005Z,95.14
2022-08-31T04:59:00.619Z,95.76
2022-08-31T05:01:42.754Z,95.96
2022-08-31T05:04:29.164Z,95.27
2022-08-31T05:06:56.045Z,95.34
2022-08-31T05:09:23.726Z,95.88
2022-08-31T05:11:54.105Z,95.44
2022-08-31T05:14:22.118Z,96.44
2022-08-31T05:16:55.664Z,95.92
2022-08-31T05:19:23.122Z,96.21
2022-08-31T05:21:49.850Z,96.02
2022-08-31T05:24:22.609Z,97.27
2022-08-31T05:26:52.674Z,96.07
2022-08-31T05:29:23.705Z,96.95
2022-08-31T05:31:57.816Z,97.82
2022-08-31T05:34:24.543Z,98.15
2022-08-31T05:36:54.566Z,97.44
2022-08-31T05:39:22.216Z,97.11
2022-08-31T05:41:48.890Z,96.55
2022-08-31T05:44:17.000Z,96.46
2022-08-31T05:46:44.177Z,96.05
2022-08-31T05:49:11.702Z,95.63
2022-08-31T05:51:39.719Z,95.87
2022-08-31T05:54:07.915Z,96.52
2022-08-31T05:56:35.702Z,96.02
2022-08-31T05:59:03.140Z,95.48
2022-08-31T06:01:33.954Z,96.40
2022-08-31T06:04:13.265Z,97.06
2022-08-31T06:06:41.618Z,96.92
2022-08-31T06:09:11.575Z,97.08
2022-08-31T06:11:39.580Z,96.60
2022-08-31T06:14:06.522Z,95.72
2022-08-31T06:16:36.083Z,95.26
2022-08-31T06:19:07.147Z,95.10
2022-08-31T06:21:49.859Z,95.66
2022-08-31T06:24:22.201Z,95.17
2022-08-31T06:26:57.922Z,95.99
2022-08-31T06:29:28.160Z,94.97
2022-08-31T06:31:55.579Z,94.83
2022-08-31T06:34:23.496Z,94.69
2022-08-31T06:36:59.373Z,93.06
2022-08-31T06:39:45.083Z,92.32
2022-08-31T06:42:35.563Z,91.82
2022-08-31T06:45:02.609Z,91.94
2022-08-31T06:47:42.107Z,92.18
2022-08-31T06:50:10.496Z,92.27
2022-08-31T06:52:39.100Z,92.61
2022-08-31T06:55:25.277Z,91.12
2022-08-31T06:58:10.382Z,90.56
2022-08-31T07:01:07.152Z,89.60
2022-08-31T07:03:55.662Z,88.42
2022-08-31T07:06:28.774Z,88.15
2022-08-31T07:09:01.203Z,88.71
2022-08-31T07:11:33.836Z,88.40
2022-08-31T07:14:01.972Z,88.18
2022-08-31T07:16:30.985Z,88.22
2022-08-31T07:19:03.411Z,88.88
2022-08-31T07:21:40.724Z,88.97
2022-08-31T07:24:07.908Z,90.10
2022-08-31T07:26:40.815Z,88.96
2022-08-31T07:29:10.031Z,90.24
2022-08-31T07:31:46.176Z,88.90
2022-08-31T07:34:19.236Z,89.51
2022-08-31T07:37:15.985Z,89.45
2022-08-31T07:40:07.160Z,87.78
2022-08-31T07:42:43.646Z,88.11
2022-08-31T07:45:22.833Z,87.60
2022-08-31T07:47:53.606Z,87.18
2022-08-31T07:50:23.048Z,86.93
2022-08-31T07:53:11.749Z,86.53
2022-08-31T07:55:41.918Z,86.35
2022-08-31T07:58:22.618Z,86.59
2022-08-31T08:00:49.821Z,86.59
2022-08-31T08:03:16.661Z,86.54
2022-08-31T08:06:04.100Z,85.27
2022-08-31T08:08:39.019Z,84.70
2022-08-31T08:11:36.726Z,85.84
2022-08-31T08:14:39.549Z,82.81
2022-08-31T08:17:35.806Z,82.21
2022-08-31T08:20:14.085Z,80.65
2022-08-31T08:22:54.175Z,80.97
2022-08-31T08:25:34.778Z,79.73
2022-08-31T08:28:39.171Z,79.34
2022-08-31T08:31:14.307Z,79.09
2022-08-31T08:33:41.106Z,77.83
2022-08-31T08:36:08.563Z,77.59
2022-08-31T08:38:40.131Z,77.48
2022-08-31T08:41:12.945Z,77.07
2022-08-31T08:43:43.860Z,77.96
2022-08-31T08:46:33.331Z,76.99
2022-08-31T08:49:28.359Z,75.49
2022-08-31T08:52:03.264Z,74.47
2022-08-31T08:54:38.646Z,73.45
2022-08-31T08:57:14.766Z,72.09
2022-08-31T08:59:45.362Z,68.28
2022-08-31T09:02:21.452Z,69.11
2022-08-31T09:04:51.809Z,70.75
2022-08-31T09:07:56.940Z,74.26
2022-08-31T09:10:33.553Z,72.46
2022-08-31T09:13:09.132Z,70.57
2022-08-31T09:15:38.864Z,69.90
2022-08-31T09:18:33.530Z,71.06
2022-08-31T09:21:29.485Z,71.33
2022-08-31T09:24:04.434Z,70.84
2022-08-31T09:27:27.363Z,68.16
2022-08-31T09:30:00.557Z,66.57
2022-08-31T09:32:34.895Z,68.66
2022-08-31T09:35:08.132Z,66.03
2022-08-31T09:37:50.485Z,66.25
2022-08-31T09:40:23.664Z,62.72
2022-08-31T09:43:25.481Z,64.76
2022-08-31T09:46:09.976Z,63.36
2022-08-31T09:48:52.980Z,63.09
2022-08-31T09:51:24.504Z,65.98
2022-08-31T09:54:10.208Z,65.70
2022-08-31T09:56:57.456Z,63.99
2022-08-31T09:59:44.100Z,65.40
2022-08-31T10:02:30.139Z,65.33
2022-08-31T10:05:06.354Z,65.71
2022-08-31T10:07:55.302Z,67.93
2022-08-31T10:10:31.479Z,68.23
2022-08-31T10:13:12.446Z,68.05
2022-08-31T10:15:53.838Z,69.24
2022-08-31T10:18:44.915Z,70.45
2022-08-31T10:21:21.259Z,70.30
2022-08-31T10:23:59.068Z,69.50
2022-08-31T10:26:39.136Z,69.18
2022-08-31T10:29:21.181Z,68.74
2022-08-31T10:31:54.841Z,69.29
2022-08-31T10:34:49.239Z,70.36
2022-08-31T10:37:24.063Z,69.36
2022-08-31T10:39:58.676Z,70.28
2022-08-31T10:42:30.090Z,67.89
2022-08-31T10:45:04.229Z,68.49
2022-08-31T10:47:34.086Z,68.84
2022-08-31T10:50:04.901Z,68.02
2022-08-31T10:53:03.715Z,67.76
2022-08-31T10:55:58.038Z,68.81
2022-08-31T10:59:02.322Z,67.17
2022-08-31T11:01:41.367Z,67.73
2022-08-31T11:04:25.126Z,69.31
2022-08-31T11:07:26.132Z,65.90
2022-08-31T11:10:03.825Z,67.02
2022-08-31T11:12:42.370Z,65.53
2022-08-31T11:15:44.087Z,65.38
2022-08-31T11:18:40.250Z,65.68
2022-08-31T11:21:26.291Z,63.99
2022-08-31T11:24:07.734Z,64.10
2022-08-31T11:27:00.445Z,66.04
2022-08-31T11:29:36.256Z,65.38
2022-08-31T11:32:15.085Z,64.97
2022-08-31T11:35:08.345Z,64.47
2022-08-31T11:37:56.014Z,65.07
2022-08-31T11:40:41.620Z,63.65
2022-08-31T11:43:35.923Z,64.11
2022-08-31T11:46:27.221Z,64.69
2022-08-31T11:48:54.514Z,64.42
2022-08-31T11:51:42.069Z,63.93
2022-08-31T11:54:22.775Z,64.39
2022-08-31T11:56:49.428Z,64.62
2022-08-31T11:59:30.156Z,64.35
2022-08-31T12:02:19.359Z,62.79
2022-08-31T12:04:52.245Z,63.13
2022-08-31T12:07:31.004Z,63.19
2022-08-31T12:10:11.745Z,64.17
2022-08-31T12:12:49.693Z,63.25
2022-08-31T12:15:27.343Z,63.83
2022-08-31T12:17:53.912Z,64.19
2022-08-31T12:20:31.265Z,64.52
2022-08-31T12:23:35.562Z,66.40
2022-08-31T12:26:20.799Z,63.41
2022-08-31T12:28:59.265Z,63.87
2022-08-31T12:31:26.577Z,63.75
2022-08-31T12:34:03.194Z,64.42
2022-08-31T12:36:33.715Z,62.67
2022-08-31T12:39:18.959Z,63.65
2022-08-31T12:41:51.679Z,62.04
2022-08-31T12:44:41.692Z,61.89
2022-08-31T12:47:23.957Z,60.49
2022-08-31T12:50:06.846Z,63.10
2022-08-31T12:53:00.735Z,59.97
2022-08-31T12:55:45.827Z,59.60
2022-08-31T12:58:38.444Z,59.78
2022-08-31T13:01:09.564Z,58.93
2022-08-31T13:03:40.093Z,58.93
2022-08-31T13:06:08.964Z,57.91
2022-08-31T13:08:42.960Z,57.78
2022-08-31T13:11:35.474Z,56.94
2022-08-31T13:14:19.968Z,56.55
2022-08-31T13:16:52.814Z,57.28
2022-08-31T13:19:26.459Z,56.48
2022-08-31T13:21:58.104Z,56.63
2022-08-31T13:24:28.903Z,56.67
2022-08-31T13:27:12.464Z,57.04
2022-08-31T13:29:45.253Z,56.24
2022-08-31T13:32:22.138Z,55.47
2022-08-31T13:34:49.222Z,55.88
2022-08-31T13:37:32.789Z,55.76
2022-08-31T13:40:07.619Z,55.16
2022-08-31T13:42:42.724Z,54.38
2022-08-31T13:45:29.084Z,53.67
2022-08-31T13:48:03.022Z,55.30
2022-08-31T13:50:47.756Z,55.09
2022-08-31T13:53:39.964Z,55.20
2022-08-31T13:56:43.725Z,54.73
2022-08-31T13:59:22.156Z,53.72
2022-08-31T14:01:59.898Z,53.04
2022-08-31T14:04:48.423Z,54.41
2022-08-31T14:07:23.818Z,54.88
2022-08-31T14:10:07.948Z,55.31
2022-08-31T14:12:46.077Z,55.38
2022-08-31T14:15:17.448Z,53.56
2022-08-31T14:21:24.251Z,53.67
2022-08-31T14:23:53.567Z,53.10
2022-08-31T14:26:26.110Z,53.26
2022-08-31T14:28:55.624Z,51.43
2022-08-31T14:31:26.854Z,51.03
2022-08-31T14:34:08.050Z,51.97
2022-08-31T14:36:44.682Z,50.85
2022-08-31T14:39:11.903Z,50.31
2022-08-31T14:41:38.523Z,51.16
2022-08-31T14:44:09.317Z,51.35
2022-08-31T14:46:38.684Z,50.70
2022-08-31T14:49:07.168Z,51.35
2022-08-31T14:51:35.164Z,51.41
2022-08-31T14:54:01.787Z,50.58
2022-08-31T14:56:33.203Z,51.08
2022-08-31T14:59:03.855Z,51.62
2022-08-31T15:01:35.781Z,50.88
2022-08-31T15:04:04.077Z,50.51
2022-08-31T15:06:32.847Z,50.00
2022-08-31T15:09:01.226Z,49.75
2022-08-31T15:11:27.794Z,49.50
2022-08-31T15:13:55.079Z,49.41
2022-08-31T15:16:23.930Z,49.03
2022-08-31T15:18:54.313Z,48.56
2022-08-31T15:21:21.125Z,49.99
2022-08-31T15:23:50.874Z,50.79
2022-08-31T15:26:21.367Z,51.46
2022-08-31T15:28:52.526Z,51.88
2022-08-31T15:31:27.042Z,53.07
2022-08-31T15:33:55.398Z,52.35
2022-08-31T15:36:24.974Z,52.49
2022-08-31T15:38:57.216Z,52.17
2022-08-31T15:41:28.391Z,52.13
2022-08-31T15:43:55.724Z,52.33
2022-08-31T15:46:40.641Z,53.00
2022-08-31T15:49:09.881Z,52.36
2022-08-31T15:51:50.188Z,51.46
2022-08-31T15:54:22.672Z,51.30
2022-08-31T15:56:54.086Z,50.58
2022-08-31T15:59:22.965Z,50.10
2022-08-31T16:01:51.823Z,50.02
2022-08-31T16:04:23.489Z,49.58
2022-08-31T16:06:52.931Z,49.72
2022-08-31T16:09:22.902Z,49.28
2022-08-31T16:11:50.953Z,48.68
2022-08-31T16:14:18.156Z,49.05
2022-08-31T16:16:47.749Z,49.24
2022-08-31T16:19:34.191Z,49.50
2022-08-31T16:22:03.867Z,49.45
2022-08-31T16:24:37.189Z,48.87
2022-08-31T16:27:11.531Z,47.51
2022-08-31T16:29:39.151Z,47.34
2022-08-31T16:32:08.403Z,48.10
2022-08-31T16:34:37.227Z,47.67
2022-08-31T16:37:07.731Z,48.73
2022-08-31T16:39:40.579Z,48.44
2022-08-31T16:42:11.033Z,48.37
2022-08-31T16:44:39.343Z,48.56
2022-08-31T16:47:07.560Z,48.44
2022-08-31T16:49:36.214Z,49.27
2022-08-31T16:52:11.114Z,48.64
2022-08-31T16:54:43.004Z,47.81
2022-08-31T16:57:15.462Z,47.58
2022-08-31T16:59:42.489Z,47.21
2022-08-31T17:02:11.817Z,47.07
2022-08-31T17:04:52.005Z,46.95
2022-08-31T17:07:20.632Z,47.04
2022-08-31T17:09:47.877Z,47.35
2022-08-31T17:12:21.717Z,47.41
2022-08-31T17:14:52.763Z,47.95
2022-08-31T17:17:25.033Z,48.43
2022-08-31T17:19:53.377Z,48.28
2022-08-31T17:22:29.942Z,48.22
2022-08-31T17:25:03.140Z,48.62
2022-08-31T17:27:33.263Z,48.38
2022-08-31T17:30:01.153Z,48.84
2022-08-31T17:32:29.008Z,49.48
2022-08-31T17:34:56.334Z,49.71
2022-08-31T17:37:30.420Z,50.11
2022-08-31T17:39:58.875Z,50.09
2022-08-31T17:42:27.244Z,50.50
2022-08-31T17:44:55.686Z,50.54
2022-08-31T17:47:24.153Z,50.83
2022-08-31T17:49:52.677Z,51.58
2022-08-31T17:52:21.713Z,52.20
2022-08-31T17:54:51.089Z,52.43
2022-08-31T17:57:22.295Z,53.63
2022-08-31T17:59:49.357Z,55.07
2022-08-31T18:02:23.279Z,56.67
2022-08-31T18:04:52.194Z,58.09
2022-08-31T18:07:20.400Z,57.97
2022-08-31T18:09:47.659Z,58.45
2022-08-31T18:12:16.475Z,60.06
2022-08-31T18:14:43.275Z,59.36
2022-08-31T18:17:12.798Z,61.34
2022-08-31T18:19:40.531Z,61.26
2022-08-31T18:22:08.154Z,63.73
2022-08-31T18:24:37.324Z,63.13
2022-08-31T18:27:07.057Z,63.61
2022-08-31T18:29:35.823Z,64.99
2022-08-31T18:32:04.604Z,65.45
2022-08-31T18:34:34.231Z,65.11
2022-08-31T18:37:02.387Z,66.12
2022-08-31T18:39:50.974Z,65.97
2022-08-31T18:42:38.296Z,66.96
2022-08-31T18:45:20.954Z,66.65
2022-08-31T18:50:43.047Z,65.94
2022-08-31T18:53:11.129Z,65.74
2022-08-31T18:55:43.358Z,65.67
2022-08-31T18:58:10.257Z,66.33
2022-08-31T19:00:37.444Z,66.60
2022-08-31T19:03:04.353Z,67.17
2022-08-31T19:05:34.606Z,70.13
2022-08-31T19:08:01.391Z,70.97
2022-08-31T19:10:28.277Z,70.34
2022-08-31T19:12:58.472Z,70.23
2022-08-31T19:15:36.197Z,69.86
2022-08-31T19:18:05.533Z,70.46
2022-08-31T19:20:33.352Z,70.99
2022-08-31T19:23:00.577Z,71.54
2022-08-31T19:25:27.713Z,71.97
2022-08-31T19:27:54.886Z,74.04
2022-08-31T19:30:27.328Z,73.67
2022-08-31T19:32:56.420Z,72.24
2022-08-31T19:35:26.289Z,73.84
2022-08-31T19:37:54.159Z,73.79
2022-08-31T19:40:21.453Z,73.23
2022-08-31T19:45:44.921Z,72.96
2022-08-31T19:48:13.067Z,72.30
2022-08-31T19:50:42.371Z,71.19
2022-08-31T19:53:13.652Z,68.25
2022-08-31T19:55:50.140Z,64.54
2022-08-31T19:58:19.325Z,61.35
2022-08-31T20:00:48.426Z,62.23
2022-08-31T20:03:16.188Z,63.30
2022-08-31T20:05:43.589Z,64.12
2022-08-31T20:08:12.378Z,61.79
2022-08-31T20:10:44.648Z,60.68
2022-08-31T20:13:12.625Z,59.95
2022-08-31T20:15:44.531Z,60.00
2022-08-31T20:18:12.747Z,58.92
2022-08-31T20:20:45.333Z,57.87
2022-08-31T20:23:16.737Z,57.76
2022-08-31T20:25:45.779Z,57.36
2022-08-31T20:28:13.588Z,57.17
2022-08-31T20:30:42.348Z,57.00
2022-08-31T20:33:11.253Z,57.41
2022-08-31T20:35:47.595Z,56.90
2022-08-31T20:38:19.023Z,56.42
2022-08-31T20:40:52.297Z,56.88
2022-08-31T20:43:21.078Z,56.72
2022-08-31T20:45:48.870Z,56.62
2022-08-31T20:48:34.586Z,56.71
2022-08-31T20:51:15.896Z,56.78
2022-08-31T20:53:44.236Z,57.05
2022-08-31T20:56:17.250Z,57.20
2022-08-31T20:58:46.108Z,57.54
2022-08-31T21:01:13.934Z,57.51
2022-08-31T21:03:41.128Z,57.97
2022-08-31T21:06:11.724Z,58.39
2022-08-31T21:08:42.705Z,58.48
2022-08-31T21:11:19.983Z,58.98
2022-08-31T21:13:46.911Z,59.02
2022-08-31T21:16:14.562Z,59.25
2022-08-31T21:18:41.236Z,59.46
2022-08-31T21:21:13.071Z,59.14
2022-08-31T21:23:39.878Z,59.40
2022-08-31T21:26:10.081Z,59.49
2022-08-31T21:28:39.774Z,59.72
2022-08-31T21:31:16.456Z,59.91
2022-08-31T21:33:46.264Z,59.79
2022-08-31T21:36:15.647Z,60.10
2022-08-31T21:38:43.133Z,60.37
2022-08-31T21:41:12.096Z,60.53
2022-08-31T21:43:40.307Z,60.91
2022-08-31T21:46:17.120Z,60.99
2022-08-31T21:48:44.730Z,60.92
2022-08-31T21:51:19.006Z,60.66
2022-08-31T21:53:49.060Z,60.71
2022-08-31T21:56:17.214Z,60.97
2022-08-31T21:58:44.240Z,60.96
2022-08-31T22:01:13.381Z,61.23
2022-08-31T22:03:40.606Z,61.52
2022-08-31T22:06:27.027Z,61.08
2022-08-31T22:09:00.183Z,60.63
2022-08-31T22:11:30.390Z,60.71
2022-08-31T22:13:59.008Z,60.72
2022-08-31T22:16:26.374Z,60.88
2022-08-31T22:19:02.094Z,61.39
2022-08-31T22:21:35.180Z,61.28
2022-08-31T22:24:05.498Z,61.42
2022-08-31T22:26:36.452Z,61.51
2022-08-31T22:29:06.134Z,61.56
2022-08-31T22:31:37.207Z,62.04
2022-08-31T22:34:06.394Z,62.10
2022-08-31T22:36:34.519Z,62.33
2022-08-31T22:39:08.585Z,62.58
2022-08-31T22:41:37.442Z,63.29
2022-08-31T22:44:06.419Z,63.14
2022-08-31T22:46:34.508Z,63.16
2022-08-31T22:49:01.830Z,63.29
2022-08-31T22:51:28.574Z,64.08
2022-08-31T22:53:55.239Z,63.96
2022-08-31T22:56:27.994Z,64.09
2022-08-31T22:58:59.458Z,64.33
2022-08-31T23:01:29.358Z,63.82
2022-08-31T23:03:58.432Z,63.78
2022-08-31T23:06:26.676Z,63.76
2022-08-31T23:08:55.486Z,63.78
2022-08-31T23:11:24.306Z,64.02
2022-08-31T23:13:53.654Z,63.97
2022-08-31T23:16:24.110Z,64.23
2022-08-31T23:18:59.065Z,64.33
2022-08-31T23:21:27.913Z,64.26
2022-08-31T23:23:55.898Z,64.55
2022-08-31T23:26:27.591Z,64.75
2022-08-31T23:28:55.963Z,64.89
2022-08-31T23:31:23.049Z,65.04
2022-08-31T23:33:53.218Z,65.59
2022-08-31T23:36:25.978Z,65.83
2022-08-31T23:38:55.015Z,65.68
2022-08-31T23:41:26.739Z,66.51
2022-08-31T23:43:53.517Z,66.08
2022-08-31T23:46:22.120Z,66.65
2022-08-31T23:48:49.771Z,66.49
2022-08-31T23:51:20.006Z,66.71
2022-08-31T23:53:48.515Z,67.12
2022-08-31T23:56:15.344Z,67.09
2022-08-31T23:58:44.512Z,67.19
